Terminal Aerodrome Forecast
Issued by NWS

Home | Current Version | Previous Version | Text Only | Print | Product List | Glossary On
Versions: 1 2 3 4 5 6 7 8 9 10 11 12 13 14 15 16 17 18 19 20 21 22 23 24 25 26 27 28 29 30 31 32 33 34
000
FTUS46 KOTX 012322
TAFCOE
TAF
KCOE 012322Z 0200/0224 22004KT 2SM -SN BR OVC016
     FM020200 22004KT 4SM -SHSN BR SCT008 OVC012
     FM020500 20005KT 6SM BR SCT003 OVC010
     FM021500 11005KT P6SM OVC015
     FM022000 13005KT P6SM -RA BKN020 OVC035
      AMD LTD TO CLD AND VIS=

USA.gov is the U.S. government's official web portal to all federal, state and local government web resources and services.